Time;durP1;ratioP1;P1;durP2;ratioP2;P2;SDS_P1;SDS_P2;PMS_P1;PMS_P2;Temp;Humidity;BMP_temperature;BMP_pressure;BME280_temperature;BME280_humidity;BME280_pressure;Samples;Min_cycle;Max_cycle;Signal;HPM_P1;HPM_P2
2022/06/19 00:01:47;;;;;;;;;;;22.70;99.90;;;;;;5032047;28;19975;-71
2022/06/19 00:04:16;;;;;;;;;;;22.70;99.90;;;;;;5032079;28;20392;-71
2022/06/19 00:06:43;;;;;;;;;;;22.60;99.90;;;;;;5031943;28;19947;-70
2022/06/19 00:09:10;;;;;;;;;;;22.50;99.90;;;;;;5031896;28;19925;-70
2022/06/19 00:11:39;;;;;;;;;;;22.40;99.90;;;;;;5031947;28;19925;-70
2022/06/19 00:14:06;;;;;;;;;;;22.20;99.90;;;;;;5032150;28;19926;-70
2022/06/19 00:16:33;;;;;;;;;;;22.10;99.90;;;;;;5031996;28;19975;-70
2022/06/19 00:18:59;;;;;;;;;;;22.10;99.90;;;;;;5032030;28;20373;-70
2022/06/19 00:21:28;;;;;;;;;;;22.00;99.90;;;;;;5031922;28;19925;-70
2022/06/19 00:23:55;;;;;;;;;;;22.10;99.90;;;;;;5031782;28;19925;-70
2022/06/19 00:26:21;;;;;;;;;;;22.10;99.90;;;;;;5031862;28;19975;-73
2022/06/19 00:28:48;;;;;;;;;;;22.10;99.90;;;;;;5031875;28;19925;-70
2022/06/19 00:31:15;;;;;;;;;;;22.10;99.90;;;;;;5031828;28;19933;-71
2022/06/19 00:33:42;;;;;;;;;;;22.20;99.90;;;;;;5031815;28;19936;-71
2022/06/19 00:36:09;;;;;;;;;;;22.20;99.90;;;;;;5031700;28;19929;-71
2022/06/19 00:38:37;;;;;;;;;;;22.30;99.90;;;;;;5031925;28;19925;-71
2022/06/19 00:41:04;;;;;;;;;;;22.10;99.90;;;;;;5031926;28;19925;-70
2022/06/19 00:43:31;;;;;;;;;;;22.00;99.90;;;;;;5031622;28;20344;-71
2022/06/19 00:46:00;;;;;;;;;;;22.00;99.90;;;;;;5031634;28;19925;-71
2022/06/19 00:48:31;;;;;;;;;;;21.90;99.90;;;;;;5032026;28;19979;-71
2022/06/19 00:51:02;;;;;;;;;;;21.90;99.90;;;;;;5031673;28;19926;-71
2022/06/19 00:53:30;;;;;;;;;;;21.80;99.90;;;;;;5031666;28;19925;-72
2022/06/19 00:55:58;;;;;;;;;;;21.70;99.90;;;;;;5031571;28;19925;-71
2022/06/19 00:58:28;;;;;;;;;;;21.70;99.90;;;;;;5031616;28;19932;-71
2022/06/19 01:00:56;;;;;;;;;;;21.50;99.90;;;;;;5031581;28;20381;-71
2022/06/19 01:03:24;;;;;;;;;;;21.30;99.90;;;;;;5031412;28;19925;-71
2022/06/19 01:05:51;;;;;;;;;;;21.20;99.90;;;;;;5034708;28;19929;-72
2022/06/19 01:08:19;;;;;;;;;;;21.10;99.90;;;;;;5035287;28;19929;-71
2022/06/19 01:10:48;;;;;;;;;;;21.00;99.90;;;;;;5035338;28;19926;-71
2022/06/19 01:13:18;;;;;;;;;;;21.00;99.90;;;;;;5035520;28;19925;-71
2022/06/19 01:15:45;;;;;;;;;;;21.00;99.90;;;;;;5035083;28;20343;-71
2022/06/19 01:18:13;;;;;;;;;;;20.90;99.90;;;;;;5035259;28;20405;-72
2022/06/19 01:20:41;;;;;;;;;;;20.90;99.90;;;;;;5035238;28;19925;-71
2022/06/19 01:23:10;;;;;;;;;;;20.70;99.90;;;;;;5035131;28;19971;-71
2022/06/19 01:25:40;;;;;;;;;;;20.70;99.90;;;;;;5034980;28;19925;-71
2022/06/19 01:30:53;;;;;;;;;;;20.70;99.90;;;;;;5034997;28;19931;-72
2022/06/19 01:33:21;;;;;;;;;;;20.80;99.90;;;;;;5034808;28;19925;-72
2022/06/19 01:35:49;;;;;;;;;;;20.70;99.90;;;;;;5034773;28;19926;-72
2022/06/19 01:38:18;;;;;;;;;;;20.70;99.90;;;;;;5034930;28;19925;-72
2022/06/19 01:40:47;;;;;;;;;;;20.70;99.90;;;;;;5034614;28;19929;-72
2022/06/19 01:43:14;;;;;;;;;;;20.50;99.90;;;;;;5034492;28;19929;-72
2022/06/19 01:45:43;;;;;;;;;;;20.60;99.90;;;;;;5034571;28;19925;-72
2022/06/19 01:48:10;;;;;;;;;;;20.50;99.90;;;;;;5034484;28;19979;-72
2022/06/19 01:50:36;;;;;;;;;;;20.60;99.90;;;;;;5034483;28;19925;-72
2022/06/19 01:53:05;;;;;;;;;;;20.60;99.90;;;;;;5034390;28;19925;-71
2022/06/19 01:55:33;;;;;;;;;;;20.50;99.90;;;;;;5034235;28;19928;-71
2022/06/19 01:58:02;;;;;;;;;;;20.40;99.90;;;;;;5034738;28;19925;-72
2022/06/19 02:00:31;;;;;;;;;;;20.40;99.90;;;;;;5034273;28;19948;-72
2022/06/19 02:03:01;;;;;;;;;;;20.40;99.90;;;;;;5034126;28;19972;-72
2022/06/19 02:05:28;;;;;;;;;;;20.50;99.90;;;;;;5034089;28;19925;-72
2022/06/19 02:07:55;;;;;;;;;;;20.40;99.90;;;;;;5034009;28;19929;-72
2022/06/19 02:10:22;;;;;;;;;;;20.20;99.90;;;;;;5033977;28;19929;-73
2022/06/19 02:12:49;;;;;;;;;;;20.30;99.90;;;;;;5034010;28;19925;-72
2022/06/19 02:15:18;;;;;;;;;;;20.30;99.90;;;;;;5033429;28;19929;-73
2022/06/19 02:17:49;;;;;;;;;;;20.20;99.90;;;;;;5033440;28;20320;-72
2022/06/19 02:20:15;;;;;;;;;;;20.10;99.90;;;;;;5033961;28;20304;-72
2022/06/19 02:22:42;;;;;;;;;;;20.10;99.90;;;;;;5033972;28;19925;-72
2022/06/19 02:25:10;;;;;;;;;;;20.00;99.90;;;;;;5033660;28;19976;-72
2022/06/19 02:27:38;;;;;;;;;;;20.00;99.90;;;;;;5033988;28;20251;-72
2022/06/19 02:30:06;;;;;;;;;;;19.90;99.90;;;;;;5033753;28;19925;-71
2022/06/19 02:32:35;;;;;;;;;;;19.80;99.90;;;;;;5033812;28;19928;-72
2022/06/19 02:35:03;;;;;;;;;;;19.80;99.90;;;;;;5033474;28;20368;-72
2022/06/19 02:37:32;;;;;;;;;;;19.60;99.90;;;;;;5033610;28;19979;-72
2022/06/19 02:40:02;;;;;;;;;;;19.90;99.90;;;;;;5033602;28;20355;-71
2022/06/19 02:42:35;;;;;;;;;;;19.60;99.90;;;;;;5033562;28;19931;-72
2022/06/19 02:45:05;;;;;;;;;;;19.60;99.90;;;;;;5033501;28;19972;-72
2022/06/19 02:47:34;;;;;;;;;;;19.80;99.90;;;;;;5033476;28;19925;-71
2022/06/19 02:50:01;;;;;;;;;;;19.90;99.90;;;;;;5033290;28;19929;-72
2022/06/19 02:52:28;;;;;;;;;;;19.70;99.90;;;;;;5033513;28;20340;-72
2022/06/19 02:54:56;;;;;;;;;;;19.30;99.90;;;;;;5033239;28;19979;-72
2022/06/19 02:57:23;;;;;;;;;;;19.30;99.90;;;;;;5033610;28;20395;-73
2022/06/19 02:59:50;;;;;;;;;;;19.30;99.90;;;;;;5033488;28;19925;-72
2022/06/19 03:02:17;;;;;;;;;;;19.60;99.90;;;;;;5033106;28;19933;-71
2022/06/19 03:04:46;;;;;;;;;;;19.60;99.90;;;;;;5033355;28;19933;-73
2022/06/19 03:07:13;;;;;;;;;;;19.70;99.90;;;;;;5033086;28;19987;-72
2022/06/19 03:09:40;;;;;;;;;;;19.40;99.90;;;;;;5033100;28;19948;-72
2022/06/19 03:12:08;;;;;;;;;;;19.30;99.90;;;;;;5033094;28;19995;-72
2022/06/19 03:14:34;;;;;;;;;;;19.20;99.90;;;;;;5032846;28;19925;-72
2022/06/19 03:17:01;;;;;;;;;;;19.10;99.90;;;;;;5033087;28;19925;-72
2022/06/19 03:19:28;;;;;;;;;;;19.00;99.90;;;;;;5033057;28;19929;-72
2022/06/19 03:21:56;;;;;;;;;;;19.00;99.90;;;;;;5032895;28;19999;-72
2022/06/19 03:24:23;;;;;;;;;;;19.10;99.90;;;;;;5032855;28;19929;-72
2022/06/19 03:26:50;;;;;;;;;;;19.10;99.90;;;;;;5032624;28;20017;-72
2022/06/19 03:29:17;;;;;;;;;;;19.30;99.90;;;;;;5032767;28;19929;-72
2022/06/19 03:31:44;;;;;;;;;;;19.20;99.90;;;;;;5032586;28;19929;-72
2022/06/19 03:34:10;;;;;;;;;;;19.10;99.90;;;;;;5032750;28;19973;-72
2022/06/19 03:36:37;;;;;;;;;;;19.00;99.90;;;;;;5032597;28;19925;-72
2022/06/19 03:39:05;;;;;;;;;;;19.00;99.90;;;;;;5032682;28;19933;-72
2022/06/19 03:41:32;;;;;;;;;;;19.00;99.90;;;;;;5032683;28;19925;-71
2022/06/19 03:43:59;;;;;;;;;;;19.00;99.90;;;;;;5032500;28;19925;-72
2022/06/19 03:46:26;;;;;;;;;;;19.00;99.90;;;;;;5032561;28;19971;-72
2022/06/19 03:48:52;;;;;;;;;;;19.00;99.90;;;;;;5032507;28;19949;-71
2022/06/19 03:51:22;;;;;;;;;;;19.10;99.90;;;;;;5032557;28;19925;-73
2022/06/19 03:53:49;;;;;;;;;;;19.20;99.90;;;;;;5032903;28;19927;-71
2022/06/19 03:56:19;;;;;;;;;;;19.30;99.90;;;;;;5032847;28;19925;-72
2022/06/19 03:58:46;;;;;;;;;;;19.40;99.90;;;;;;5033100;28;19932;-72
2022/06/19 04:01:14;;;;;;;;;;;19.40;99.90;;;;;;5033424;28;19925;-72
2022/06/19 04:03:41;;;;;;;;;;;19.40;99.90;;;;;;5033072;28;19931;-72
2022/06/19 04:06:09;;;;;;;;;;;19.40;99.90;;;;;;5032386;28;19925;-71
2022/06/19 04:08:36;;;;;;;;;;;19.40;99.90;;;;;;5032703;28;19925;-71
2022/06/19 04:11:02;;;;;;;;;;;19.30;99.90;;;;;;5032458;28;19925;-72
2022/06/19 04:13:32;;;;;;;;;;;19.30;99.90;;;;;;5032039;28;19929;-72
2022/06/19 04:15:59;;;;;;;;;;;19.30;99.90;;;;;;5031902;28;20576;-71
2022/06/19 04:18:26;;;;;;;;;;;19.30;99.90;;;;;;5032010;28;19925;-72
2022/06/19 04:20:53;;;;;;;;;;;19.40;99.90;;;;;;5031736;28;20019;-72
2022/06/19 04:23:20;;;;;;;;;;;19.50;99.90;;;;;;5031825;28;19925;-75
2022/06/19 04:25:46;;;;;;;;;;;19.60;99.90;;;;;;5031782;28;20382;-72
2022/06/19 04:28:13;;;;;;;;;;;19.60;99.90;;;;;;5031978;28;19932;-72
2022/06/19 04:30:46;;;;;;;;;;;19.80;99.90;;;;;;5031902;28;19929;-72
2022/06/19 04:33:13;;;;;;;;;;;19.90;99.90;;;;;;5032057;28;19925;-71
2022/06/19 04:35:40;;;;;;;;;;;20.00;99.90;;;;;;5031705;28;19971;-72
2022/06/19 04:38:07;;;;;;;;;;;19.90;99.90;;;;;;5031782;28;19933;-72
2022/06/19 04:40:34;;;;;;;;;;;20.10;99.90;;;;;;5034803;28;19929;-72
2022/06/19 04:43:00;;;;;;;;;;;20.20;99.90;;;;;;5035709;28;19979;-72
2022/06/19 04:45:27;;;;;;;;;;;20.20;99.90;;;;;;5035593;28;19925;-73
2022/06/19 04:47:55;;;;;;;;;;;20.30;99.90;;;;;;5035904;28;19925;-72
2022/06/19 04:50:22;;;;;;;;;;;20.20;99.90;;;;;;5035595;28;19925;-72
2022/06/19 04:52:49;;;;;;;;;;;20.20;99.90;;;;;;5035372;28;20381;-72
2022/06/19 04:55:16;;;;;;;;;;;20.20;99.90;;;;;;5035324;28;19925;-73
2022/06/19 04:57:43;;;;;;;;;;;20.20;99.90;;;;;;5035571;28;19995;-72
2022/06/19 05:00:13;;;;;;;;;;;20.30;99.90;;;;;;5035390;28;19929;-72
2022/06/19 05:02:40;;;;;;;;;;;20.30;99.90;;;;;;5035541;28;19956;-72
2022/06/19 05:05:09;;;;;;;;;;;20.50;99.90;;;;;;5035175;28;19979;-70
2022/06/19 05:07:36;;;;;;;;;;;20.50;99.90;;;;;;5035286;28;19929;-71
2022/06/19 05:10:02;;;;;;;;;;;20.70;99.90;;;;;;5035315;28;20365;-71
2022/06/19 05:12:29;;;;;;;;;;;20.80;99.90;;;;;;5035043;28;19987;-71
2022/06/19 05:14:56;;;;;;;;;;;20.80;99.90;;;;;;5034928;28;19932;-72
2022/06/19 05:17:23;;;;;;;;;;;21.00;99.90;;;;;;5035235;28;19925;-71
2022/06/19 05:19:49;;;;;;;;;;;21.10;99.90;;;;;;5035093;28;19971;-71
2022/06/19 05:22:18;;;;;;;;;;;21.30;99.90;;;;;;5035075;28;19925;-72
2022/06/19 05:24:44;;;;;;;;;;;21.40;99.90;;;;;;5034933;28;20383;-72
2022/06/19 05:27:12;;;;;;;;;;;21.50;99.90;;;;;;5034858;28;19925;-71
2022/06/19 05:29:39;;;;;;;;;;;21.70;99.90;;;;;;5034947;28;19999;-71
2022/06/19 05:32:06;;;;;;;;;;;21.90;99.90;;;;;;5034971;28;19933;-71
2022/06/19 05:34:33;;;;;;;;;;;22.00;99.90;;;;;;5034753;28;19987;-71
2022/06/19 05:37:00;;;;;;;;;;;22.10;99.90;;;;;;5034577;28;19925;-71
2022/06/19 05:39:28;;;;;;;;;;;22.30;99.90;;;;;;5034713;28;19925;-71
2022/06/19 05:41:57;;;;;;;;;;;22.50;99.90;;;;;;5034559;28;20400;-72
2022/06/19 05:44:24;;;;;;;;;;;22.70;99.90;;;;;;5034703;28;19925;-73
2022/06/19 05:46:51;;;;;;;;;;;22.80;99.90;;;;;;5129200;22;19987;-68
2022/06/19 05:49:18;;;;;;;;;;;22.90;99.90;;;;;;5034664;28;19925;-69
2022/06/19 05:51:45;;;;;;;;;;;23.10;99.90;;;;;;5034226;28;19925;-69
2022/06/19 05:54:11;;;;;;;;;;;23.30;99.90;;;;;;5034609;28;19933;-69
2022/06/19 05:56:40;;;;;;;;;;;23.40;99.90;;;;;;5034368;28;19929;-69
2022/06/19 05:59:07;;;;;;;;;;;23.60;99.90;;;;;;5034591;28;19932;-69
2022/06/19 06:01:33;;;;;;;;;;;23.70;99.50;;;;;;5034268;28;20396;-69
2022/06/19 06:04:00;;;;;;;;;;;23.80;99.30;;;;;;5034330;28;19929;-69
2022/06/19 06:06:31;;;;;;;;;;;23.90;99.30;;;;;;5033869;28;19995;-69
2022/06/19 06:08:58;;;;;;;;;;;24.00;98.90;;;;;;5034199;28;19925;-69
2022/06/19 06:11:25;;;;;;;;;;;24.20;98.70;;;;;;5034172;28;20340;-69
2022/06/19 06:13:53;;;;;;;;;;;24.20;98.90;;;;;;5033819;28;20003;-69
2022/06/19 06:16:21;;;;;;;;;;;24.40;98.90;;;;;;5033936;28;20435;-69
2022/06/19 06:18:48;;;;;;;;;;;24.50;98.40;;;;;;5034109;28;20389;-69
2022/06/19 06:21:15;;;;;;;;;;;24.70;97.60;;;;;;5033908;28;19925;-69
2022/06/19 06:23:42;;;;;;;;;;;24.80;97.40;;;;;;5033885;28;19933;-69
2022/06/19 06:26:10;;;;;;;;;;;24.80;97.30;;;;;;5033863;28;19972;-69
2022/06/19 06:28:38;;;;;;;;;;;25.00;97.70;;;;;;5033897;28;19964;-69
2022/06/19 06:31:06;;;;;;;;;;;25.10;97.10;;;;;;5033926;28;20404;-69
2022/06/19 06:33:33;;;;;;;;;;;25.20;96.80;;;;;;5033584;28;19990;-69
2022/06/19 06:36:00;;;;;;;;;;;25.20;96.70;;;;;;5033551;28;19925;-69
2022/06/19 06:38:27;;;;;;;;;;;25.30;96.20;;;;;;5033686;28;19971;-69
2022/06/19 06:40:54;;;;;;;;;;;25.50;96.40;;;;;;5033761;28;20281;-69
2022/06/19 06:43:21;;;;;;;;;;;25.70;96.00;;;;;;5033472;28;19925;-69
2022/06/19 06:45:48;;;;;;;;;;;25.70;96.00;;;;;;5033358;28;19955;-69
2022/06/19 06:48:16;;;;;;;;;;;25.80;95.70;;;;;;5033710;28;19995;-69
2022/06/19 06:50:43;;;;;;;;;;;26.10;95.70;;;;;;5033333;28;19932;-69
2022/06/19 06:53:11;;;;;;;;;;;26.20;95.70;;;;;;5033445;28;20400;-69
2022/06/19 06:55:38;;;;;;;;;;;26.30;95.70;;;;;;5033077;28;19931;-69
2022/06/19 06:58:05;;;;;;;;;;;26.30;95.30;;;;;;5033274;28;19931;-69
2022/06/19 07:00:32;;;;;;;;;;;26.30;95.40;;;;;;5033255;28;19979;-69
2022/06/19 07:02:59;;;;;;;;;;;26.40;95.20;;;;;;5032595;28;20324;-69
2022/06/19 07:05:27;;;;;;;;;;;26.60;95.00;;;;;;5032936;28;19931;-69
2022/06/19 07:07:54;;;;;;;;;;;26.60;94.60;;;;;;5033102;28;19948;-69
2022/06/19 07:10:21;;;;;;;;;;;26.90;94.50;;;;;;5033245;28;20297;-69
2022/06/19 07:12:48;;;;;;;;;;;26.90;94.60;;;;;;5032858;28;20373;-69
2022/06/19 07:15:15;;;;;;;;;;;27.00;94.10;;;;;;5032565;28;19925;-69
2022/06/19 07:17:42;;;;;;;;;;;27.00;94.10;;;;;;5033104;28;19932;-69
2022/06/19 07:20:10;;;;;;;;;;;27.10;94.20;;;;;;5033042;28;19936;-69
2022/06/19 07:22:38;;;;;;;;;;;27.40;93.70;;;;;;5032863;28;19925;-69
2022/06/19 07:25:06;;;;;;;;;;;27.50;93.50;;;;;;5032812;28;19925;-69
2022/06/19 07:27:33;;;;;;;;;;;27.50;93.50;;;;;;5032817;28;20028;-69
2022/06/19 07:30:00;;;;;;;;;;;27.50;93.60;;;;;;5032885;28;19926;-69
2022/06/19 07:32:27;;;;;;;;;;;27.70;93.50;;;;;;5032493;28;20270;-69
2022/06/19 07:34:54;;;;;;;;;;;27.90;93.40;;;;;;5032465;28;20385;-69
2022/06/19 07:37:20;;;;;;;;;;;27.80;93.30;;;;;;5032500;28;20339;-68
2022/06/19 07:39:48;;;;;;;;;;;27.90;93.40;;;;;;5032511;28;19929;-69
2022/06/19 07:42:15;;;;;;;;;;;27.60;93.30;;;;;;5032635;28;19925;-69
2022/06/19 07:44:42;;;;;;;;;;;27.80;93.40;;;;;;5032374;28;19979;-69
2022/06/19 07:52:35;;;;;;;;;;;27.90;93.20;;;;;;5029452;28;20015;-69
2022/06/19 07:55:04;;;;;;;;;;;28.20;92.80;;;;;;5032048;28;19932;-69
2022/06/19 07:57:30;;;;;;;;;;;28.20;93.10;;;;;;5032188;28;19929;-69
2022/06/19 07:59:57;;;;;;;;;;;28.20;92.80;;;;;;5032069;28;19925;-69
2022/06/19 08:02:24;;;;;;;;;;;28.30;93.10;;;;;;5031954;28;19975;-69
2022/06/19 08:04:51;;;;;;;;;;;28.50;92.50;;;;;;5032386;28;19932;-69
2022/06/19 08:07:18;;;;;;;;;;;28.50;92.50;;;;;;5032095;28;19925;-69
2022/06/19 08:09:45;;;;;;;;;;;28.60;92.30;;;;;;5032378;28;19932;-69
2022/06/19 08:12:14;;;;;;;;;;;28.60;92.50;;;;;;5032048;28;20401;-69
2022/06/19 08:14:41;;;;;;;;;;;28.80;92.50;;;;;;5030944;28;20424;-69
2022/06/19 08:17:07;;;;;;;;;;;29.00;92.60;;;;;;5031872;28;19925;-69
2022/06/19 08:19:34;;;;;;;;;;;28.90;92.70;;;;;;5032238;28;20282;-69
2022/06/19 08:22:01;;;;;;;;;;;29.00;92.50;;;;;;5031918;28;19929;-69
2022/06/19 08:24:28;;;;;;;;;;;29.40;92.00;;;;;;5032264;28;19932;-69
2022/06/19 08:26:56;;;;;;;;;;;29.50;92.20;;;;;;5031700;28;20432;-69
2022/06/19 08:29:24;;;;;;;;;;;29.80;91.70;;;;;;5031711;28;20381;-69
2022/06/19 08:31:51;;;;;;;;;;;30.20;91.10;;;;;;5031761;28;19929;-69
2022/06/19 08:34:18;;;;;;;;;;;30.90;90.40;;;;;;5031819;28;20340;-69
2022/06/19 08:36:45;;;;;;;;;;;31.00;90.10;;;;;;5031714;28;20297;-69
2022/06/19 08:39:14;;;;;;;;;;;30.40;90.70;;;;;;5031792;28;19979;-69
2022/06/19 08:41:50;;;;;;;;;;;30.20;91.00;;;;;;5032054;28;20024;-69
2022/06/19 08:44:35;;;;;;;;;;;30.30;90.50;;;;;;5031868;28;20398;-69
2022/06/19 08:47:14;;;;;;;;;;;30.80;90.00;;;;;;5030949;28;19925;-69
2022/06/19 08:49:51;;;;;;;;;;;31.60;88.60;;;;;;5031763;28;20427;-69
2022/06/19 08:52:24;;;;;;;;;;;31.80;87.60;;;;;;5031390;28;20385;-69
2022/06/19 08:55:03;;;;;;;;;;;32.20;87.60;;;;;;5031304;28;20381;-68
2022/06/19 08:57:34;;;;;;;;;;;31.50;88.10;;;;;;5031694;28;19929;-68
2022/06/19 09:00:05;;;;;;;;;;;31.60;89.70;;;;;;5031759;28;19975;-68
2022/06/19 09:02:39;;;;;;;;;;;31.70;87.80;;;;;;5031770;28;19925;-69
2022/06/19 09:08:03;;;;;;;;;;;32.70;85.30;;;;;;5031923;28;20269;-69
2022/06/19 09:10:35;;;;;;;;;;;33.10;85.30;;;;;;5031584;28;19955;-68
2022/06/19 09:13:11;;;;;;;;;;;32.90;84.70;;;;;;5031417;28;20225;-68
2022/06/19 09:15:40;;;;;;;;;;;33.20;84.70;;;;;;5031412;28;19948;-68
2022/06/19 09:18:13;;;;;;;;;;;33.50;85.10;;;;;;5031407;28;19925;-68
2022/06/19 09:20:43;;;;;;;;;;;33.20;84.10;;;;;;5031364;28;19925;-68
2022/06/19 09:23:19;;;;;;;;;;;33.70;84.00;;;;;;5031760;28;20388;-68
2022/06/19 09:25:53;;;;;;;;;;;34.30;81.80;;;;;;5032616;28;19929;-69
2022/06/19 09:28:23;;;;;;;;;;;34.50;80.40;;;;;;5034968;28;19932;-68
2022/06/19 09:30:54;;;;;;;;;;;34.40;81.50;;;;;;5035008;28;19925;-69
2022/06/19 09:33:27;;;;;;;;;;;34.60;77.60;;;;;;5034924;28;19925;-68
2022/06/19 09:36:03;;;;;;;;;;;35.20;76.60;;;;;;5034502;28;20376;-68
2022/06/19 09:38:35;;;;;;;;;;;35.10;75.90;;;;;;5035014;28;19995;-69
2022/06/19 09:41:04;;;;;;;;;;;35.30;77.00;;;;;;5034709;28;19933;-69
2022/06/19 09:43:35;;;;;;;;;;;35.20;76.60;;;;;;5034723;28;19925;-68
2022/06/19 09:46:04;;;;;;;;;;;34.70;77.60;;;;;;5034607;28;19925;-68
2022/06/19 09:48:35;;;;;;;;;;;35.50;75.70;;;;;;5034740;28;19975;-68
2022/06/19 09:51:06;;;;;;;;;;;35.40;76.00;;;;;;5034582;28;19929;-68
2022/06/19 09:53:35;;;;;;;;;;;35.90;75.70;;;;;;5034550;28;19933;-68
2022/06/19 09:56:09;;;;;;;;;;;35.30;76.40;;;;;;5034550;28;19925;-68
2022/06/19 09:58:38;;;;;;;;;;;35.90;74.80;;;;;;5034342;28;20377;-69
2022/06/19 10:01:05;;;;;;;;;;;36.30;75.40;;;;;;5034288;28;20381;-69
2022/06/19 10:03:36;;;;;;;;;;;36.00;75.30;;;;;;5034256;28;20004;-68
2022/06/19 10:06:06;;;;;;;;;;;35.80;75.30;;;;;;5034000;28;19925;-69
2022/06/19 10:08:36;;;;;;;;;;;35.70;74.70;;;;;;5034815;28;19931;-69
2022/06/19 10:11:05;;;;;;;;;;;36.30;75.10;;;;;;5034560;28;19936;-68
2022/06/19 10:13:35;;;;;;;;;;;35.90;75.60;;;;;;5033911;28;19925;-69
2022/06/19 10:16:02;;;;;;;;;;;36.20;75.90;;;;;;5033899;28;19932;-69
2022/06/19 10:18:32;;;;;;;;;;;36.80;73.90;;;;;;5034264;28;19931;-69
2022/06/19 10:21:03;;;;;;;;;;;36.40;74.30;;;;;;5034070;28;20017;-69
2022/06/19 10:23:42;;;;;;;;;;;35.70;75.30;;;;;;5034023;28;20019;-69
2022/06/19 10:26:24;;;;;;;;;;;35.20;75.60;;;;;;5033660;28;20459;-68
2022/06/19 10:29:01;;;;;;;;;;;35.30;76.70;;;;;;5032381;28;19925;-68
2022/06/19 10:31:36;;;;;;;;;;;35.90;75.60;;;;;;5033794;28;19948;-68
2022/06/19 10:34:16;;;;;;;;;;;37.30;73.90;;;;;;5033698;28;20357;-68
2022/06/19 10:36:48;;;;;;;;;;;37.30;73.10;;;;;;5032836;28;19925;-68
2022/06/19 10:39:23;;;;;;;;;;;36.60;73.20;;;;;;5034163;28;19929;-68
2022/06/19 10:42:12;;;;;;;;;;;37.40;72.90;;;;;;5033456;28;19930;-70
2022/06/19 10:44:44;;;;;;;;;;;38.50;71.10;;;;;;5033581;28;20288;-68
2022/06/19 10:47:13;;;;;;;;;;;38.40;70.90;;;;;;5033404;28;19929;-68
2022/06/19 10:49:46;;;;;;;;;;;37.10;72.30;;;;;;5033604;28;20386;-68
2022/06/19 10:52:20;;;;;;;;;;;37.80;71.90;;;;;;5033402;28;19972;-68
2022/06/19 10:54:54;;;;;;;;;;;36.50;72.20;;;;;;5033125;28;19925;-68
2022/06/19 11:00:33;;;;;;;;;;;38.10;71.70;;;;;;5030335;28;20452;-69
2022/06/19 11:06:01;;;;;;;;;;;38.50;70.40;;;;;;5010066;28;19924;-69
2022/06/19 11:08:31;;;;;;;;;;;38.00;70.70;;;;;;5033271;28;19925;-69
2022/06/19 11:10:59;;;;;;;;;;;37.70;72.00;;;;;;5032781;28;19932;-69
2022/06/19 11:13:41;;;;;;;;;;;37.20;72.20;;;;;;5032292;28;19929;-70
2022/06/19 11:16:10;;;;;;;;;;;37.80;71.80;;;;;;5029526;28;19925;-68
2022/06/19 11:18:46;;;;;;;;;;;37.30;73.20;;;;;;5032849;28;19933;-68
2022/06/19 11:21:14;;;;;;;;;;;37.10;73.00;;;;;;5032760;28;19932;-68
2022/06/19 11:23:52;;;;;;;;;;;37.40;72.20;;;;;;5032691;28;20348;-69
2022/06/19 11:26:20;;;;;;;;;;;37.70;72.20;;;;;;5032478;28;20095;-69
2022/06/19 11:28:49;;;;;;;;;;;36.40;72.60;;;;;;5032699;28;19925;-69
2022/06/19 11:31:18;;;;;;;;;;;36.50;74.00;;;;;;5033042;28;20309;-68
2022/06/19 11:33:46;;;;;;;;;;;36.80;73.60;;;;;;5032822;28;19983;-69
2022/06/19 11:36:25;;;;;;;;;;;37.10;73.40;;;;;;5032411;28;19979;-68
2022/06/19 11:38:54;;;;;;;;;;;37.50;71.60;;;;;;5032503;28;19929;-68
2022/06/19 11:41:27;;;;;;;;;;;38.70;71.50;;;;;;5031450;28;19932;-68
2022/06/19 11:44:01;;;;;;;;;;;38.20;71.30;;;;;;5030555;28;20381;-68
2022/06/19 11:46:28;;;;;;;;;;;39.10;69.80;;;;;;5032107;28;19940;-68
2022/06/19 11:48:55;;;;;;;;;;;39.30;70.30;;;;;;5032423;28;19933;-68
2022/06/19 11:51:30;;;;;;;;;;;38.20;70.20;;;;;;5032599;28;19933;-68
2022/06/19 11:53:59;;;;;;;;;;;37.40;71.40;;;;;;5032247;28;19991;-68
2022/06/19 11:56:30;;;;;;;;;;;37.00;72.90;;;;;;5032102;28;19925;-68
2022/06/19 11:58:58;;;;;;;;;;;37.10;72.90;;;;;;5032142;28;19925;-68
2022/06/19 12:01:35;;;;;;;;;;;36.80;72.90;;;;;;5032320;28;20036;-68
2022/06/19 12:04:05;;;;;;;;;;;36.40;72.50;;;;;;5032025;28;19932;-68
2022/06/19 12:06:40;;;;;;;;;;;36.60;71.90;;;;;;5031808;28;19994;-68
2022/06/19 12:09:19;;;;;;;;;;;36.40;71.50;;;;;;5031952;28;20338;-68
2022/06/19 12:11:49;;;;;;;;;;;37.50;71.60;;;;;;5032142;28;19924;-68
2022/06/19 12:14:27;;;;;;;;;;;38.40;69.40;;;;;;5031869;28;19925;-68
2022/06/19 12:17:06;;;;;;;;;;;37.30;70.90;;;;;;5031840;28;19929;-68
2022/06/19 12:19:33;;;;;;;;;;;37.10;70.10;;;;;;5032062;28;20305;-68
2022/06/19 12:22:02;;;;;;;;;;;37.30;71.40;;;;;;5031805;28;19986;-68
2022/06/19 12:24:39;;;;;;;;;;;37.30;71.60;;;;;;5032387;28;19925;-68
2022/06/19 12:27:11;;;;;;;;;;;37.30;71.70;;;;;;5032299;28;20400;-68
2022/06/19 12:29:40;;;;;;;;;;;37.20;71.90;;;;;;5031891;28;19979;-68
2022/06/19 12:32:10;;;;;;;;;;;37.50;71.50;;;;;;5031725;28;19925;-68
2022/06/19 12:34:38;;;;;;;;;;;37.60;71.90;;;;;;5031707;28;19948;-68
2022/06/19 12:37:06;;;;;;;;;;;36.90;72.00;;;;;;5031822;28;19943;-68
2022/06/19 12:39:34;;;;;;;;;;;37.20;72.30;;;;;;5031664;28;19956;-68
2022/06/19 12:42:04;;;;;;;;;;;37.60;72.30;;;;;;5031658;28;20306;-68
2022/06/19 12:44:39;;;;;;;;;;;37.90;71.70;;;;;;5031746;28;19971;-68
2022/06/19 12:47:11;;;;;;;;;;;37.60;71.60;;;;;;5031552;28;19929;-68
2022/06/19 12:50:08;;;;;;;;;;;37.50;71.60;;;;;;5031724;28;19996;-68
2022/06/19 12:52:41;;;;;;;;;;;39.10;68.50;;;;;;4970512;28;20278;-68
2022/06/19 12:55:15;;;;;;;;;;;38.80;68.50;;;;;;5019401;28;19925;-68
2022/06/19 12:57:49;;;;;;;;;;;39.00;69.70;;;;;;5031626;28;20344;-68
2022/06/19 13:00:24;;;;;;;;;;;40.00;68.60;;;;;;5032672;28;20036;-68
2022/06/19 13:03:00;;;;;;;;;;;39.60;69.60;;;;;;5035691;28;20289;-68
2022/06/19 13:05:35;;;;;;;;;;;39.30;69.90;;;;;;5035469;28;20344;-68
2022/06/19 13:08:07;;;;;;;;;;;38.70;70.20;;;;;;5035449;28;19925;-68
2022/06/19 13:10:43;;;;;;;;;;;38.60;70.40;;;;;;5035452;28;20343;-68
2022/06/19 13:13:20;;;;;;;;;;;38.40;70.70;;;;;;5035247;28;19972;-68
2022/06/19 13:15:54;;;;;;;;;;;38.70;69.70;;;;;;5035286;28;19932;-68
2022/06/19 13:18:28;;;;;;;;;;;39.40;69.30;;;;;;5035552;28;19925;-68
2022/06/19 13:20:57;;;;;;;;;;;38.50;69.80;;;;;;5035413;28;19925;-68
2022/06/19 13:23:27;;;;;;;;;;;38.00;71.60;;;;;;5035099;28;19932;-68
2022/06/19 13:26:03;;;;;;;;;;;39.00;68.40;;;;;;5035201;28;19929;-68
2022/06/19 13:28:36;;;;;;;;;;;39.80;68.70;;;;;;5035033;28;19934;-68
2022/06/19 13:31:05;;;;;;;;;;;38.30;70.20;;;;;;5035081;28;19925;-68
2022/06/19 13:33:39;;;;;;;;;;;38.50;66.50;;;;;;5035513;28;19932;-68
2022/06/19 13:36:10;;;;;;;;;;;39.50;66.50;;;;;;5034782;28;19932;-68
2022/06/19 13:38:42;;;;;;;;;;;38.30;67.60;;;;;;5034888;28;19925;-68
2022/06/19 13:41:16;;;;;;;;;;;38.60;67.00;;;;;;5034868;28;19972;-68
2022/06/19 13:43:51;;;;;;;;;;;38.60;67.90;;;;;;5034753;28;20408;-68
2022/06/19 13:46:26;;;;;;;;;;;38.60;68.50;;;;;;5034659;28;20381;-68
2022/06/19 13:48:54;;;;;;;;;;;37.50;68.40;;;;;;5034887;28;19925;-68
2022/06/19 13:51:26;;;;;;;;;;;37.10;69.60;;;;;;5034748;28;19987;-68
2022/06/19 13:53:56;;;;;;;;;;;38.30;68.30;;;;;;5034548;28;19925;-68
2022/06/19 13:56:27;;;;;;;;;;;37.60;69.60;;;;;;5034486;28;19984;-68
2022/06/19 13:59:00;;;;;;;;;;;37.90;69.10;;;;;;5034643;28;19933;-68
2022/06/19 14:01:30;;;;;;;;;;;38.80;67.30;;;;;;5034612;28;20443;-68
2022/06/19 14:07:03;;;;;;;;;;;38.60;68.00;;;;;;5034523;28;20010;-68
2022/06/19 14:09:34;;;;;;;;;;;38.00;68.90;;;;;;5034925;28;19929;-69
2022/06/19 14:12:06;;;;;;;;;;;37.70;67.70;;;;;;5034139;28;19925;-68
2022/06/19 14:14:36;;;;;;;;;;;38.30;67.70;;;;;;5034410;28;19925;-68
2022/06/19 14:17:06;;;;;;;;;;;38.70;66.80;;;;;;5033929;28;20340;-68
2022/06/19 14:19:36;;;;;;;;;;;37.90;68.30;;;;;;5034092;28;19925;-68
2022/06/19 14:22:15;;;;;;;;;;;37.50;68.00;;;;;;5034524;28;20353;-68
2022/06/19 14:24:46;;;;;;;;;;;38.00;66.70;;;;;;5034265;28;19929;-68
2022/06/19 14:27:18;;;;;;;;;;;38.90;64.50;;;;;;5033969;28;19971;-68
2022/06/19 14:29:51;;;;;;;;;;;37.90;65.50;;;;;;5034170;28;19952;-68
2022/06/19 14:32:19;;;;;;;;;;;38.30;65.70;;;;;;5034102;28;19979;-68
2022/06/19 14:34:54;;;;;;;;;;;38.90;64.70;;;;;;5033592;28;19929;-68
2022/06/19 14:37:41;;;;;;;;;;;38.60;65.70;;;;;;5034258;28;20297;-68
2022/06/19 14:40:35;;;;;;;;;;;38.10;65.10;;;;;;5033626;28;19972;-68
2022/06/19 14:43:06;;;;;;;;;;;38.10;64.30;;;;;;5034271;28;19932;-68
2022/06/19 14:45:35;;;;;;;;;;;38.50;63.60;;;;;;5033816;28;19925;-68
2022/06/19 14:48:06;;;;;;;;;;;38.50;64.40;;;;;;5033576;28;19979;-68
2022/06/19 14:50:40;;;;;;;;;;;37.80;65.80;;;;;;5033775;28;19925;-68